Pleasant City, Ohio
Current Conditions -  °F | °C
As of 4:53 PM on Sunday 21 Dec 2014 (Local Time) from KZZV Reporting Station
Clear Clear  
Wind Chill: 32°   Ceiling: Unl
Heat Index: 32°   Visibility: 10mi
Dew Point: 23°   Wind: 3mph
Humidity: 69%   Direction: 40°NE
Pressure: 30.23"   Gusts: NA
Location:  39.9°N, 81.55°W
Report Text: KZZV 212153Z AUTO 04003KT 10SM CLR 00/M05 A3023 RMK AO2 SLP244 T00001050 $
Loading
Personal Weather Stations






























Interactive Weather Map New forecast layout! Learn more

10-Day Weather Forecast

Advertisements
Track Severe Weather on mobile